createdAt,value
2019-04-06T00:01:43.037Z,99.22
2019-04-06T00:04:12.128Z,106.50
2019-04-06T00:06:40.744Z,101.95
2019-04-06T00:09:09.346Z,98.22
2019-04-06T00:11:38.288Z,98.78
2019-04-06T00:14:07.382Z,99.97
2019-04-06T00:16:35.971Z,102.40
2019-04-06T00:19:04.610Z,101.70
2019-04-06T00:21:33.299Z,97.60
2019-04-06T00:24:01.906Z,106.60
2019-04-06T00:26:30.530Z,100.62
2019-04-06T00:28:59.583Z,104.30
2019-04-06T00:31:29.831Z,102.25
2019-04-06T00:33:58.509Z,99.60
2019-04-06T00:36:27.130Z,102.15
2019-04-06T00:38:55.785Z,99.47
2019-04-06T00:41:24.343Z,104.80
2019-04-06T00:43:52.955Z,95.85
2019-04-06T00:46:21.919Z,101.42
2019-04-06T00:48:50.526Z,106.70
2019-04-06T00:51:19.135Z,103.00
2019-04-06T00:53:47.727Z,110.03
2019-04-06T00:56:16.362Z,108.60
2019-04-06T00:58:44.962Z,104.80
2019-04-06T01:01:14.026Z,112.35
2019-04-06T01:03:42.641Z,103.20
2019-04-06T01:06:11.448Z,108.52
2019-04-06T01:08:40.036Z,108.70
2019-04-06T01:11:08.645Z,113.52
2019-04-06T01:13:38.120Z,110.90
2019-04-06T01:16:06.805Z,107.45
2019-04-06T01:18:35.583Z,107.00
2019-04-06T01:21:04.533Z,111.15
2019-04-06T01:23:33.131Z,108.10
2019-04-06T01:26:07.357Z,108.20
2019-04-06T01:28:32.471Z,106.72
2019-04-06T01:31:01.108Z,109.70
2019-04-06T01:33:30.103Z,111.12
2019-04-06T01:35:58.702Z,114.82
2019-04-06T01:38:27.331Z,103.67
2019-04-06T01:40:55.935Z,109.15
2019-04-06T01:43:24.543Z,113.10
2019-04-06T01:45:53.237Z,110.52
2019-04-06T01:48:21.849Z,109.75
2019-04-06T01:50:50.489Z,118.35
2019-04-06T01:53:19.087Z,108.22
2019-04-06T01:55:47.704Z,114.62
2019-04-06T01:58:16.316Z,113.00
2019-04-06T02:00:46.582Z,114.52
2019-04-06T02:03:15.190Z,107.85
2019-04-06T02:05:43.795Z,110.37
2019-04-06T02:08:13.712Z,112.90
2019-04-06T02:10:42.671Z,111.85
2019-04-06T02:13:11.317Z,116.17
2019-04-06T02:15:39.893Z,114.97
2019-04-06T02:18:08.462Z,114.05
2019-04-06T02:20:37.062Z,112.70
2019-04-06T02:23:05.635Z,113.97
2019-04-06T02:25:34.239Z,117.57
2019-04-06T02:28:03.207Z,119.90
2019-04-06T02:30:35.912Z,110.32
2019-04-06T02:33:15.136Z,118.67
2019-04-06T02:36:03.401Z,113.68
2019-04-06T02:38:39.307Z,121.33
2019-04-06T02:41:09.942Z,117.50
2019-04-06T02:43:40.529Z,116.77
2019-04-06T02:46:09.216Z,113.70
2019-04-06T02:48:37.818Z,123.07
2019-04-06T02:51:06.413Z,118.28
2019-04-06T02:53:34.962Z,120.20
2019-04-06T02:56:03.565Z,116.75
2019-04-06T02:58:32.224Z,123.13
2019-04-06T03:01:00.997Z,119.08
2019-04-06T03:03:29.964Z,121.22
2019-04-06T03:05:58.538Z,114.65
2019-04-06T03:08:27.137Z,115.82
2019-04-06T03:10:56.112Z,118.02
2019-04-06T03:13:24.804Z,120.47
2019-04-06T03:15:53.451Z,118.60
2019-04-06T03:18:22.332Z,123.20
2019-04-06T03:20:51.396Z,125.53
2019-04-06T03:23:19.978Z,113.17
2019-04-06T03:25:48.937Z,120.22
2019-04-06T03:28:17.518Z,126.45
2019-04-06T03:30:46.160Z,119.25
2019-04-06T03:33:14.764Z,126.72
2019-04-06T03:35:47.600Z,124.07
2019-04-06T03:38:13.734Z,121.30
2019-04-06T03:40:42.260Z,126.53
2019-04-06T03:43:10.854Z,123.72
2019-04-06T03:45:39.427Z,132.25
2019-04-06T03:48:08.141Z,126.90
2019-04-06T03:50:36.671Z,124.40
2019-04-06T03:53:05.215Z,124.47
2019-04-06T03:55:33.829Z,128.05
2019-04-06T03:58:02.315Z,123.75
2019-04-06T04:00:30.832Z,122.98
2019-04-06T04:02:59.310Z,125.90
2019-04-06T04:05:28.463Z,124.87
2019-04-06T04:07:56.943Z,129.00
2019-04-06T04:10:34.241Z,126.53
2019-04-06T04:13:03.158Z,126.75
2019-04-06T04:15:31.687Z,125.62
2019-04-06T04:18:00.236Z,124.95
2019-04-06T04:20:29.073Z,129.40
2019-04-06T04:22:57.553Z,121.95
2019-04-06T04:25:26.635Z,126.95
2019-04-06T04:27:55.272Z,126.02
2019-04-06T04:30:32.211Z,130.37
2019-04-06T04:32:53.922Z,129.70
2019-04-06T04:35:22.410Z,125.58
2019-04-06T04:37:50.909Z,123.05
2019-04-06T04:40:19.397Z,135.52
2019-04-06T04:42:47.879Z,132.32
2019-04-06T04:45:16.448Z,134.87
2019-04-06T04:47:44.974Z,154.75
2019-04-06T04:50:13.618Z,216.50
2019-04-06T04:52:42.095Z,176.95
2019-04-06T04:55:11.170Z,131.18
2019-04-06T04:57:41.463Z,137.05
2019-04-06T05:00:10.255Z,129.07
2019-04-06T05:02:38.786Z,137.72
2019-04-06T05:05:09.377Z,169.68
2019-04-06T05:07:37.668Z,143.07
2019-04-06T05:10:07.030Z,133.45
2019-04-06T05:12:35.745Z,132.90
2019-04-06T05:15:07.280Z,138.37
2019-04-06T05:17:35.723Z,132.32
2019-04-06T05:20:06.245Z,133.03
2019-04-06T05:22:34.698Z,134.72
2019-04-06T05:25:03.352Z,142.93
2019-04-06T05:27:32.142Z,136.95
2019-04-06T05:30:00.952Z,132.57
2019-04-06T05:32:29.434Z,143.90
2019-04-06T05:34:58.388Z,135.12
2019-04-06T05:37:29.702Z,148.43
2019-04-06T05:39:59.996Z,135.22
2019-04-06T05:42:29.082Z,142.32
2019-04-06T05:44:57.562Z,131.47
2019-04-06T05:47:26.390Z,140.30
2019-04-06T05:49:55.337Z,139.92
2019-04-06T05:52:23.848Z,136.72
2019-04-06T05:54:52.378Z,139.85
2019-04-06T05:57:20.845Z,139.62
2019-04-06T05:59:49.337Z,130.60
2019-04-06T06:02:17.914Z,135.57
2019-04-06T06:04:46.786Z,137.68
2019-04-06T06:07:15.271Z,138.50
2019-04-06T06:09:43.814Z,138.20
2019-04-06T06:12:13.518Z,137.03
2019-04-06T06:14:42.005Z,134.47
2019-04-06T06:17:10.525Z,139.30
2019-04-06T06:19:38.980Z,133.20
2019-04-06T06:22:08.011Z,135.68
2019-04-06T06:24:36.563Z,128.02
2019-04-06T06:27:05.116Z,125.12
2019-04-06T06:29:33.569Z,134.00
2019-04-06T06:32:02.121Z,121.02
2019-04-06T06:34:30.707Z,124.92
2019-04-06T06:36:59.161Z,131.70
2019-04-06T06:39:27.619Z,122.20
2019-04-06T06:41:56.112Z,122.87
2019-04-06T06:44:24.589Z,135.45
2019-04-06T06:46:53.387Z,131.12
2019-04-06T06:49:21.858Z,121.75
2019-04-06T06:51:50.328Z,115.15
2019-04-06T06:54:19.271Z,116.17
2019-04-06T06:56:47.786Z,117.65
2019-04-06T06:59:16.344Z,113.05
2019-04-06T07:01:44.795Z,117.70
2019-04-06T07:04:13.252Z,113.68
2019-04-06T07:06:41.741Z,111.22
2019-04-06T07:09:10.351Z,108.90
2019-04-06T07:11:38.818Z,105.55
2019-04-06T07:14:07.361Z,110.63
2019-04-06T07:16:35.841Z,110.75
2019-04-06T07:19:04.479Z,107.78
2019-04-06T07:21:33.098Z,106.37
2019-04-06T07:24:01.659Z,104.35
2019-04-06T07:26:30.207Z,106.07
2019-04-06T07:28:58.727Z,103.27
2019-04-06T07:31:27.481Z,102.42
2019-04-06T07:33:56.145Z,103.30
2019-04-06T07:36:24.668Z,116.00
2019-04-06T07:38:53.241Z,100.15
2019-04-06T07:41:21.912Z,94.20
2019-04-06T07:43:50.617Z,97.22
2019-04-06T07:46:19.086Z,98.00
2019-04-06T07:48:47.603Z,94.95
2019-04-06T07:51:16.168Z,99.32
2019-04-06T07:53:44.631Z,97.40
2019-04-06T07:56:13.542Z,106.12
2019-04-06T07:58:48.670Z,94.80
2019-04-06T08:01:12.265Z,102.25
2019-04-06T08:03:40.754Z,98.80
2019-04-06T08:06:09.350Z,87.33
2019-04-06T08:08:37.839Z,92.45
2019-04-06T08:11:06.325Z,96.85
2019-04-06T08:13:35.115Z,83.27
2019-04-06T08:16:04.184Z,86.70
2019-04-06T08:18:32.738Z,85.22
2019-04-06T08:21:01.366Z,86.70
2019-04-06T08:23:29.861Z,81.72
2019-04-06T08:25:58.380Z,83.97
2019-04-06T08:28:26.903Z,79.95
2019-04-06T08:30:55.551Z,79.87
2019-04-06T08:33:24.020Z,76.57
2019-04-06T08:35:52.553Z,72.85
2019-04-06T08:38:21.019Z,73.52
2019-04-06T08:40:49.466Z,73.55
2019-04-06T08:43:17.937Z,71.17
2019-04-06T08:45:46.390Z,68.67
2019-04-06T08:48:14.953Z,64.50
2019-04-06T08:50:43.502Z,67.32
2019-04-06T08:53:12.308Z,70.83
2019-04-06T08:55:41.043Z,67.08
2019-04-06T08:58:09.553Z,62.45
2019-04-06T09:00:38.046Z,66.65
2019-04-06T09:03:06.561Z,63.17
2019-04-06T09:05:35.047Z,62.95
2019-04-06T09:08:03.491Z,64.37
2019-04-06T09:10:31.997Z,67.10
2019-04-06T09:13:00.480Z,64.50
2019-04-06T09:15:29.226Z,62.75
2019-04-06T09:17:57.709Z,58.83
2019-04-06T09:20:26.237Z,52.78
2019-04-06T09:22:55.064Z,56.18
2019-04-06T09:25:23.743Z,54.23
2019-04-06T09:27:52.296Z,60.90
2019-04-06T09:30:20.866Z,55.43
2019-04-06T09:32:49.356Z,56.40
2019-04-06T09:35:18.048Z,55.92
2019-04-06T09:37:46.686Z,56.98
2019-04-06T09:40:15.214Z,51.42
2019-04-06T09:42:43.669Z,54.67
2019-04-06T09:45:19.566Z,54.38
2019-04-06T09:47:52.724Z,52.20
2019-04-06T09:50:29.098Z,54.90
2019-04-06T09:52:59.204Z,55.60
2019-04-06T09:55:29.317Z,55.73
2019-04-06T09:58:15.996Z,53.80
2019-04-06T10:00:46.181Z,60.60
2019-04-06T10:03:22.097Z,51.70
2019-04-06T10:05:55.437Z,58.45
2019-04-06T10:08:28.319Z,59.98
2019-04-06T10:11:10.498Z,55.20
2019-04-06T10:13:46.743Z,62.15
2019-04-06T10:16:16.982Z,55.58
2019-04-06T10:18:50.048Z,60.73
2019-04-06T10:21:20.578Z,59.80
2019-04-06T10:24:07.046Z,54.38
2019-04-06T10:26:52.659Z,58.02
2019-04-06T10:29:31.934Z,54.63
2019-04-06T10:32:02.397Z,56.73
2019-04-06T10:34:41.728Z,64.22
2019-04-06T10:37:12.047Z,57.27
2019-04-06T10:39:42.428Z,51.00
2019-04-06T10:42:21.670Z,53.13
2019-04-06T10:44:51.859Z,48.30
2019-04-06T10:47:27.826Z,51.95
2019-04-06T10:50:06.550Z,48.63
2019-04-06T10:52:49.032Z,46.48
2019-04-06T10:55:19.222Z,48.48
2019-04-06T10:57:49.478Z,44.30
2019-04-06T11:00:28.967Z,43.65
2019-04-06T11:03:01.647Z,47.17
2019-04-06T11:05:40.862Z,44.23
2019-04-06T11:08:29.107Z,49.93
2019-04-06T11:11:03.085Z,39.23
2019-04-06T11:13:33.609Z,47.40
2019-04-06T11:16:19.845Z,47.73
2019-04-06T11:18:59.158Z,46.95
2019-04-06T11:21:31.947Z,48.80
2019-04-06T11:24:05.013Z,46.05
2019-04-06T11:26:35.200Z,46.13
2019-04-06T11:29:05.509Z,43.28
2019-04-06T11:31:44.892Z,44.33
2019-04-06T11:34:18.212Z,43.65
2019-04-06T11:37:04.900Z,47.20
2019-04-06T11:39:47.205Z,46.60
2019-04-06T11:42:23.374Z,50.33
2019-04-06T11:44:56.469Z,51.48
2019-04-06T11:47:35.393Z,42.97
2019-04-06T11:50:23.094Z,46.42
2019-04-06T11:53:09.398Z,38.80
2019-04-06T11:55:58.052Z,41.88
2019-04-06T11:58:28.317Z,40.10
2019-04-06T12:01:01.281Z,40.63
2019-04-06T12:03:34.714Z,37.63
2019-04-06T12:06:11.308Z,42.60
2019-04-06T12:08:57.909Z,37.33
2019-04-06T12:11:31.010Z,35.68
2019-04-06T12:14:01.219Z,34.10
2019-04-06T12:16:31.778Z,39.70
2019-04-06T12:19:11.328Z,39.10
2019-04-06T12:22:00.113Z,39.48
2019-04-06T12:24:45.621Z,34.38
2019-04-06T12:27:15.863Z,39.23
2019-04-06T12:29:55.692Z,41.58
2019-04-06T12:32:55.035Z,42.95
2019-04-06T12:35:22.635Z,39.23
2019-04-06T12:38:09.406Z,38.00
2019-04-06T12:40:42.305Z,40.73
2019-04-06T12:43:12.953Z,41.55
2019-04-06T12:45:59.574Z,34.15
2019-04-06T12:48:38.548Z,32.30
2019-04-06T12:51:19.423Z,35.58
2019-04-06T12:54:14.782Z,32.65
2019-04-06T12:56:49.339Z,32.88
2019-04-06T12:59:25.585Z,37.85
2019-04-06T13:02:11.081Z,38.00
2019-04-06T13:04:53.756Z,32.35
2019-04-06T13:07:24.090Z,35.38
2019-04-06T13:10:02.958Z,35.40
2019-04-06T13:12:36.353Z,33.28
2019-04-06T13:15:34.212Z,35.65
2019-04-06T13:18:07.447Z,30.85
2019-04-06T13:20:54.353Z,30.50
2019-04-06T13:23:24.518Z,30.02
2019-04-06T13:26:03.589Z,30.48
2019-04-06T13:28:45.982Z,32.67
2019-04-06T13:31:16.561Z,32.50
2019-04-06T13:34:01.880Z,31.73
2019-04-06T13:36:32.067Z,30.57
2019-04-06T13:39:08.083Z,28.47
2019-04-06T13:41:38.271Z,25.75
2019-04-06T13:44:08.388Z,25.62
2019-04-06T13:46:44.487Z,24.70
2019-04-06T13:49:14.682Z,26.62
2019-04-06T13:51:54.100Z,24.80
2019-04-06T13:54:33.774Z,25.62
2019-04-06T13:57:13.013Z,25.60
2019-04-06T13:59:52.185Z,24.23
2019-04-06T14:02:22.358Z,24.50
2019-04-06T14:04:58.535Z,24.45
2019-04-06T14:07:44.866Z,21.27
2019-04-06T14:10:15.491Z,21.62
2019-04-06T14:12:45.699Z,21.95
2019-04-06T14:15:15.887Z,21.52
2019-04-06T14:18:02.424Z,21.10
2019-04-06T14:20:38.987Z,21.42
2019-04-06T14:23:09.415Z,23.98
2019-04-06T14:25:39.559Z,23.98
2019-04-06T14:28:18.849Z,21.35
2019-04-06T14:31:01.292Z,21.60
2019-04-06T14:33:34.141Z,22.27
2019-04-06T14:36:20.785Z,21.82
2019-04-06T14:39:08.989Z,21.17
2019-04-06T14:41:55.106Z,22.52
2019-04-06T14:44:27.995Z,23.32
2019-04-06T14:46:58.361Z,22.05
2019-04-06T14:49:33.048Z,22.75
2019-04-06T14:52:19.734Z,22.02
2019-04-06T14:55:02.450Z,22.35
2019-04-06T14:57:32.625Z,21.97
2019-04-06T15:00:03.012Z,23.45
2019-04-06T15:02:33.209Z,21.48
2019-04-06T15:05:06.250Z,20.88
2019-04-06T15:07:36.436Z,21.50
2019-04-06T15:10:10.852Z,19.82
2019-04-06T15:12:57.157Z,21.55
2019-04-06T15:15:36.305Z,22.17
2019-04-06T15:18:12.646Z,22.95
2019-04-06T15:20:47.841Z,21.35
2019-04-06T15:23:36.322Z,21.52
2019-04-06T15:26:22.343Z,19.87
2019-04-06T15:29:00.425Z,21.27
2019-04-06T15:31:33.280Z,20.72
2019-04-06T15:34:15.591Z,17.77
2019-04-06T15:36:51.347Z,22.50
2019-04-06T15:39:21.647Z,26.82
2019-04-06T15:41:57.273Z,20.12
2019-04-06T15:44:26.581Z,23.60
2019-04-06T15:47:11.897Z,25.20
2019-04-06T15:49:45.047Z,22.65
2019-04-06T15:52:33.365Z,22.07
2019-04-06T15:55:06.360Z,22.25
2019-04-06T15:57:42.413Z,21.75
2019-04-06T16:00:22.146Z,21.33
2019-04-06T16:02:55.303Z,21.68
2019-04-06T16:05:25.643Z,23.35
2019-04-06T16:08:14.354Z,23.00
2019-04-06T16:11:01.060Z,24.25
2019-04-06T16:13:39.932Z,23.92
2019-04-06T16:16:16.059Z,24.45
2019-04-06T16:19:02.397Z,22.60
2019-04-06T16:21:38.821Z,25.05
2019-04-06T16:24:14.648Z,25.88
2019-04-06T16:26:47.886Z,26.57
2019-04-06T16:29:33.063Z,26.17
2019-04-06T16:32:12.511Z,28.83
2019-04-06T16:34:40.868Z,28.60
2019-04-06T16:37:16.893Z,26.75
2019-04-06T16:39:47.394Z,27.02
2019-04-06T16:42:32.589Z,28.25
2019-04-06T16:45:05.487Z,30.25
2019-04-06T16:47:47.896Z,29.25
2019-04-06T16:50:29.850Z,27.93
2019-04-06T16:53:15.742Z,28.50
2019-04-06T16:55:52.290Z,27.27
2019-04-06T16:58:25.431Z,26.87
2019-04-06T17:00:58.242Z,29.65
2019-04-06T17:03:28.608Z,29.02
2019-04-06T17:06:01.420Z,27.60
2019-04-06T17:08:34.597Z,29.67
2019-04-06T17:11:17.488Z,30.27
2019-04-06T17:13:56.937Z,30.60
2019-04-06T17:16:43.435Z,30.45
2019-04-06T17:19:19.181Z,29.52
2019-04-06T17:21:57.951Z,29.23
2019-04-06T17:24:30.773Z,28.00
2019-04-06T17:27:00.902Z,27.93
2019-04-06T17:29:40.485Z,28.90
2019-04-06T17:32:11.079Z,29.20
2019-04-06T17:34:52.735Z,27.90
2019-04-06T17:37:13.394Z,28.45
2019-04-06T17:39:49.389Z,32.25
2019-04-06T17:42:35.663Z,34.73
2019-04-06T17:45:10.975Z,33.30
2019-04-06T17:47:57.804Z,30.65
2019-04-06T17:50:44.783Z,32.80
2019-04-06T17:53:21.143Z,30.52
2019-04-06T17:56:09.174Z,33.88
2019-04-06T17:58:53.974Z,34.27
2019-04-06T18:01:24.089Z,31.68
2019-04-06T18:04:09.399Z,31.07
2019-04-06T18:06:42.374Z,34.92
2019-04-06T18:09:18.162Z,33.73
2019-04-06T18:11:54.328Z,34.48
2019-04-06T18:14:22.826Z,33.73
2019-04-06T18:16:51.579Z,30.23
2019-04-06T18:19:20.488Z,31.25
2019-04-06T18:21:49.260Z,31.75
2019-04-06T18:24:17.934Z,34.38
2019-04-06T18:26:46.491Z,36.17
2019-04-06T18:29:15.158Z,33.20
2019-04-06T18:32:01.635Z,32.73
2019-04-06T18:34:30.113Z,32.75
2019-04-06T18:37:06.020Z,31.57
2019-04-06T18:39:34.637Z,30.72
2019-04-06T18:42:03.172Z,29.25
2019-04-06T18:44:32.028Z,31.68
2019-04-06T18:47:00.873Z,31.17
2019-04-06T18:49:29.478Z,32.60
2019-04-06T18:51:58.326Z,29.92
2019-04-06T18:54:26.945Z,29.67
2019-04-06T18:56:55.790Z,35.15
2019-04-06T18:59:24.859Z,35.25
2019-04-06T19:01:54.099Z,35.25
2019-04-06T19:04:22.711Z,35.25
2019-04-06T19:06:51.481Z,35.05
2019-04-06T19:09:23.728Z,36.77
2019-04-06T19:11:55.481Z,36.73
2019-04-06T19:14:20.452Z,36.20
2019-04-06T19:16:49.047Z,37.98
2019-04-06T19:19:17.514Z,37.73
2019-04-06T19:21:45.999Z,38.42
2019-04-06T19:24:14.499Z,41.55
2019-04-06T19:26:43.406Z,35.55
2019-04-06T19:29:12.533Z,39.03
2019-04-06T19:31:41.501Z,38.13
2019-04-06T19:34:10.285Z,43.40
2019-04-06T19:36:38.810Z,40.40
2019-04-06T19:39:10.913Z,37.88
2019-04-06T19:41:39.536Z,41.50
2019-04-06T19:44:08.344Z,38.55
2019-04-06T19:46:36.838Z,40.33
2019-04-06T19:49:05.369Z,43.33
2019-04-06T19:51:33.901Z,42.23
2019-04-06T19:54:04.685Z,35.60
2019-04-06T19:56:35.650Z,38.38
2019-04-06T19:59:04.487Z,40.30
2019-04-06T20:01:33.259Z,41.95
2019-04-06T20:04:01.742Z,44.27
2019-04-06T20:06:30.704Z,46.68
2019-04-06T20:08:59.652Z,43.98
2019-04-06T20:11:28.202Z,48.00
2019-04-06T20:13:57.217Z,48.83
2019-04-06T20:16:25.734Z,49.15
2019-04-06T20:18:54.346Z,50.88
2019-04-06T20:21:23.234Z,52.75
2019-04-06T20:23:51.732Z,50.92
2019-04-06T20:26:20.644Z,49.45
2019-04-06T20:28:49.628Z,45.55
2019-04-06T20:31:18.448Z,46.80
2019-04-06T20:33:51.597Z,49.05
2019-04-06T20:36:17.156Z,42.48
2019-04-06T20:38:46.011Z,43.48
2019-04-06T20:41:14.614Z,47.70
2019-04-06T20:43:43.131Z,48.50
2019-04-06T20:46:11.944Z,43.75
2019-04-06T20:48:40.490Z,53.45
2019-04-06T20:51:08.950Z,55.83
2019-04-06T20:53:38.091Z,54.88
2019-04-06T20:56:06.852Z,55.23
2019-04-06T20:58:35.886Z,56.85
2019-04-06T21:01:04.568Z,57.35
2019-04-06T21:03:33.537Z,56.00
2019-04-06T21:06:02.105Z,53.35
2019-04-06T21:08:30.931Z,54.30
2019-04-06T21:11:00.283Z,53.38
2019-04-06T21:13:29.031Z,57.10
2019-04-06T21:15:57.687Z,58.20
2019-04-06T21:18:26.317Z,58.58
2019-04-06T21:20:54.774Z,57.03
2019-04-06T21:23:23.553Z,55.25
2019-04-06T21:25:52.006Z,56.55
2019-04-06T21:28:20.798Z,60.33
2019-04-06T21:30:49.796Z,56.55
2019-04-06T21:33:18.615Z,60.63
2019-04-06T21:35:47.495Z,60.95
2019-04-06T21:38:16.014Z,60.35
2019-04-06T21:40:44.504Z,63.48
2019-04-06T21:43:13.486Z,60.95
2019-04-06T21:45:42.290Z,58.65
2019-04-06T21:48:10.752Z,59.95
2019-04-06T21:50:39.655Z,59.13
2019-04-06T21:53:08.494Z,60.67
2019-04-06T21:55:36.954Z,59.20
2019-04-06T21:58:05.460Z,62.27
2019-04-06T22:00:44.775Z,57.98
2019-04-06T22:03:13.415Z,63.30
2019-04-06T22:05:42.080Z,66.77
2019-04-06T22:08:10.610Z,61.50
2019-04-06T22:10:39.543Z,64.22
2019-04-06T22:13:08.357Z,66.12
2019-04-06T22:15:37.198Z,65.00
2019-04-06T22:18:06.177Z,66.25
2019-04-06T22:20:34.787Z,65.12
2019-04-06T22:23:03.755Z,67.45
2019-04-06T22:25:32.869Z,66.60
2019-04-06T22:28:02.102Z,61.10
2019-04-06T22:30:30.687Z,67.67
2019-04-06T22:32:59.218Z,69.55
2019-04-06T22:35:28.345Z,66.75
2019-04-06T22:37:57.114Z,68.15
2019-04-06T22:40:25.652Z,68.42
2019-04-06T22:42:54.111Z,64.22
2019-04-06T22:45:24.309Z,72.92
2019-04-06T22:47:53.154Z,73.70
2019-04-06T22:50:22.063Z,76.30
2019-04-06T22:52:51.496Z,76.15
2019-04-06T22:55:20.091Z,76.92
2019-04-06T22:57:48.934Z,78.72
2019-04-06T23:00:27.122Z,75.20
2019-04-06T23:02:57.579Z,74.30
2019-04-06T23:05:33.467Z,76.33
2019-04-06T23:08:01.919Z,80.83
2019-04-06T23:10:30.476Z,83.40
2019-04-06T23:12:59.605Z,84.92
2019-04-06T23:15:28.114Z,77.97
2019-04-06T23:17:56.934Z,83.75
2019-04-06T23:20:25.442Z,84.58
2019-04-06T23:22:53.962Z,88.07
2019-04-06T23:25:22.415Z,90.05
2019-04-06T23:27:50.906Z,87.65
2019-04-06T23:30:19.388Z,93.20
2019-04-06T23:32:47.931Z,93.58
2019-04-06T23:35:16.442Z,94.25
2019-04-06T23:37:44.908Z,93.95
2019-04-06T23:40:13.542Z,98.25
2019-04-06T23:42:42.062Z,96.78
2019-04-06T23:45:11.215Z,97.62
2019-04-06T23:47:40.031Z,96.30
2019-04-06T23:50:08.750Z,98.58
2019-04-06T23:52:37.224Z,97.72
2019-04-06T23:55:08.400Z,97.75
2019-04-06T23:57:37.246Z,97.90
